Terminal Aerodrome Forecast
Issued by NWS

Home | Current Version | Previous Version | Text Only | Print | Product List | Glossary On
Versions: 1 2 3 4 5 6 7 8 9 10 11 12 13 14
000
FTUS43 KJKL 210500
TAFSJS
TAF
KSJS 210540Z 2106/2206 VRB03KT P6SM VCSH SCT030 BKN080
     FM210900 24003KT P6SM FEW035 SCT060
     FM211200 27003KT 5SM BR BKN025
     FM211600 30003KT P6SM BKN040=

USA.gov is the U.S. government's official web portal to all federal, state and local government web resources and services.